Fort Vermillion, Canada
Current Conditions -  °F | °C
As of 8:00 AM on Friday 31 Oct 2014 (Local Time) from CYOJ Reporting Station
Light Rain Light Rain  
Wind Chill: 29°   Ceiling: 1400
Heat Index: 36°   Visibility: 15mi
Dew Point: 34°   Wind: 9mph
Humidity: 93%   Direction: 140°SE
Pressure: 29.53"   Gusts: NA
Location:  58.4°N, 116°W
Report Text: CYOJ 311500Z 14008KT 15SM -RA OVC014 02/01 A2953 RMK SC8 SLP016
Loading
Personal Weather Stations






























Interactive Weather Map
Tropical Storm Tracking
New forecast layout! Learn more

10-Day Weather Forecast

Advertisements
Track Severe Weather on mobile